2003 HENRI (2003247N27272)


On this page: IBTrACS data - Map and Plots - Positions - Intensities - Original source data

Summary

Start Sep 3
End Sep 8
Basin NA
LMI 50 kt
Sources hurdat_atl
atcf
In WMO? Yes
Previous storm 2003 KEVIN (EP)
Previous in basin 2003 GRACE (NA)
Concurrent storms 2003 JIMENA (EP)
2003 FABIAN (NA)
2003 MAEMI (WP)
2003 KEVIN (EP)
2003 HENRI (NA)
2003 ISABEL (NA)
2003 MISSING (NA)
Next in basin 2003 ISABEL (NA)
Next storm 2003 ISABEL (NA)

top of page IBTrACS Data: File Access

top of page HURSAT Data: File Access

Image of storm

top of page Plots:

Map of storm track will not appear if FTP is down
Time series of cyclone Maximum Sustained Wind will not appear if FTP is down
Time series of cyclone Minimum Central Pressure will not appear if FTP is down

top of page Track Data:Position

hurdat_atl atcf
Date Lat Lon Lat Lon
2003-09-03 18:00:00 27.4 -87.7 27.4 -87.7
2003-09-04 00:00:00 27.6 -87.8 27.6 -87.8
2003-09-04 06:00:00 27.8 -87.6 27.8 -87.6
2003-09-04 12:00:00 27.8 -87.2 27.8 -87.2
2003-09-04 18:00:00 27.8 -86.3 27.8 -86.3
2003-09-05 00:00:00 27.6 -85.8 27.6 -85.8
2003-09-05 06:00:00 27.7 -85.1 27.7 -85.1
2003-09-05 12:00:00 28.1 -84.4 28.1 -84.4
2003-09-05 18:00:00 28.3 -84.2 28.3 -84.2
2003-09-06 00:00:00 27.9 -83.9 27.9 -83.9
2003-09-06 06:00:00 27.7 -83.5 27.7 -83.5
2003-09-06 12:00:00 28.4 -81.8 28.4 -81.8
2003-09-06 18:00:00 29.2 -80.4 29.2 -80.4
2003-09-07 00:00:00 30.0 -79.5 30.0 -79.5
2003-09-07 06:00:00 30.5 -79.2 30.5 -79.2
2003-09-07 12:00:00 30.8 -78.5 30.8 -78.5
2003-09-07 18:00:00 31.3 -77.9 31.3 -77.9
2003-09-08 00:00:00 31.7 -77.1 31.7 -77.1
2003-09-08 06:00:00 32.1 -76.5 32.1 -76.5
2003-09-08 12:00:00 32.5 -75.9 32.5 -75.9
2003-09-08 18:00:00 32.9 -75.3 32.9 -75.3

top of pageTrack Data:Intensity

hurdat_atl atcf
Date Wind Pres Wind Pres
2003-09-03 18:00:00 25. 1013. 25. 1013.
2003-09-04 00:00:00 25. 1011. 25. 1011.
2003-09-04 06:00:00 25. 1009. 25. 1009.
2003-09-04 12:00:00 30. 1010. 30. 1010.
2003-09-04 18:00:00 30. 1002. 30. 1002.
2003-09-05 00:00:00 30. 1004. 30. 1004.
2003-09-05 06:00:00 35. 1000. 35. 1000.
2003-09-05 12:00:00 40. 997. 40. 997.
2003-09-05 18:00:00 50. 997. 50. 997.
2003-09-06 00:00:00 30. 1002. 30. 1002.
2003-09-06 06:00:00 30. 1005. 30. 1005.
2003-09-06 12:00:00 25. 1007. 25. 1007.
2003-09-06 18:00:00 25. 1006. 25. 1006.
2003-09-07 00:00:00 30. 1006. 30. 1006.
2003-09-07 06:00:00 30. 1008. 30. 1008.
2003-09-07 12:00:00 30. 1006. 30. 1006.
2003-09-07 18:00:00 30. 1006. 30. 1006.
2003-09-08 00:00:00 30. 1006. 30. 1006.
2003-09-08 06:00:00 30. 1007. 30. 1007.
2003-09-08 12:00:00 30. 1006. 30. 1006.
2003-09-08 18:00:00 25. 1006. 25. 1006.

top of page Links to source data

Source Source file Format
hurdat_atl hurdat2-1851-2015-070616.txt:Line=44367:HENRI HURDAT
atcf bal122003.dat ATCF